Vadis, West Virginia
Current Conditions -  °F | °C
As of 4:35 PM on Friday 28 Nov 2014 (Local Time) from KW22 Reporting Station
Few Clouds Few Clouds  
Wind Chill: 19°   Ceiling: Unl
Heat Index: 27°   Visibility: 10mi
Dew Point: 14°   Wind: 7mph
Humidity: 59%   Direction: 220°SW
Pressure: 30.23"   Gusts: NA
Location:  39.042°N, 80.6972°W
Report Text: KW22 282135Z AUTO 22006KT 10SM FEW031 M03/M10 A3023 RMK AO2
Loading
Personal Weather Stations






























Interactive Weather Map New forecast layout! Learn more

10-Day Weather Forecast

Advertisements
Track Severe Weather on mobile